createdAt,value
2023-03-10T00:02:48.037Z,27.17
2023-03-10T00:07:55.656Z,27.16
2023-03-10T00:13:03.090Z,27.22
2023-03-10T00:18:10.395Z,27.29
2023-03-10T00:23:17.800Z,27.36
2023-03-10T00:28:25.419Z,27.42
2023-03-10T00:33:35.296Z,27.45
2023-03-10T00:38:41.011Z,27.48
2023-03-10T00:43:48.471Z,27.52
2023-03-10T00:48:56.081Z,27.56
2023-03-10T00:54:06.676Z,27.63
2023-03-10T00:59:17.148Z,27.63
2023-03-10T01:04:24.686Z,27.67
2023-03-10T01:09:32.155Z,27.72
2023-03-10T01:14:39.636Z,27.72
2023-03-10T01:19:47.086Z,27.75
2023-03-10T01:24:54.511Z,27.78
2023-03-10T01:30:02.086Z,27.82
2023-03-10T01:35:09.403Z,27.88
2023-03-10T01:40:16.956Z,27.91
2023-03-10T01:45:24.280Z,27.96
2023-03-10T01:50:34.685Z,27.97
2023-03-10T01:55:42.193Z,27.97
2023-03-10T02:00:49.594Z,27.96
2023-03-10T02:05:56.802Z,27.97
2023-03-10T02:11:04.221Z,27.96
2023-03-10T02:16:11.661Z,27.98
2023-03-10T02:21:19.084Z,27.93
2023-03-10T02:26:26.429Z,27.98
2023-03-10T02:31:33.878Z,28.00
2023-03-10T02:36:41.121Z,28.03
2023-03-10T02:41:48.530Z,28.06
2023-03-10T02:46:55.933Z,28.01
2023-03-10T02:52:03.238Z,28.01
2023-03-10T02:57:10.542Z,28.01
2023-03-10T03:02:17.839Z,27.98
2023-03-10T03:07:25.066Z,28.02
2023-03-10T03:12:32.306Z,27.82
2023-03-10T03:17:39.699Z,28.02
2023-03-10T03:22:46.913Z,28.03
2023-03-10T03:27:54.183Z,27.72
2023-03-10T03:33:01.455Z,27.79
2023-03-10T03:38:08.647Z,28.04
2023-03-10T03:43:16.031Z,28.09
2023-03-10T03:48:23.356Z,28.09
2023-03-10T03:53:30.383Z,28.01
2023-03-10T03:58:37.594Z,27.97
2023-03-10T04:03:44.929Z,28.11
2023-03-10T04:08:52.076Z,28.00
2023-03-10T04:13:59.347Z,28.15
2023-03-10T04:19:06.560Z,28.15
2023-03-10T04:24:13.715Z,28.09
2023-03-10T04:29:20.942Z,28.07
2023-03-10T04:34:28.207Z,28.10
2023-03-10T04:39:35.336Z,28.21
2023-03-10T04:44:42.538Z,28.18
2023-03-10T04:49:49.972Z,28.20
2023-03-10T04:54:57.136Z,28.17
2023-03-10T05:00:04.424Z,28.17
2023-03-10T05:05:11.606Z,28.19
2023-03-10T05:10:18.770Z,28.17
2023-03-10T05:15:26.001Z,28.20
2023-03-10T05:20:33.285Z,28.36
2023-03-10T05:25:40.415Z,28.27
2023-03-10T05:30:47.614Z,28.27
2023-03-10T05:35:54.961Z,28.24
2023-03-10T05:41:02.088Z,28.27
2023-03-10T05:46:09.259Z,28.26
2023-03-10T05:51:16.537Z,28.28
2023-03-10T05:56:23.727Z,28.25
2023-03-10T06:01:30.905Z,28.29
2023-03-10T06:06:38.116Z,28.40
2023-03-10T06:11:45.768Z,28.35
2023-03-10T06:16:53.069Z,28.47
2023-03-10T06:22:00.169Z,28.49
2023-03-10T06:27:07.337Z,28.50
2023-03-10T06:32:14.570Z,28.53
2023-03-10T06:37:21.732Z,28.57
2023-03-10T06:42:28.927Z,28.52
2023-03-10T06:47:36.191Z,28.56
2023-03-10T06:52:43.378Z,28.36
2023-03-10T06:57:50.549Z,28.58
2023-03-10T07:02:57.737Z,28.61
2023-03-10T07:08:04.970Z,28.62
2023-03-10T07:13:12.134Z,28.58
2023-03-10T07:18:19.323Z,28.60
2023-03-10T07:23:26.627Z,28.56
2023-03-10T07:28:33.875Z,28.62
2023-03-10T07:33:41.150Z,28.37
2023-03-10T07:38:48.359Z,28.62
2023-03-10T07:43:55.517Z,28.62
2023-03-10T07:49:02.801Z,28.69
2023-03-10T07:54:10.052Z,28.73
2023-03-10T07:59:17.359Z,28.73
2023-03-10T08:04:24.831Z,28.92
2023-03-10T08:09:31.851Z,29.04
2023-03-10T08:14:39.180Z,29.10
2023-03-10T08:19:46.193Z,29.33
2023-03-10T08:24:53.399Z,29.28
2023-03-10T08:30:00.689Z,29.42
2023-03-10T08:35:07.855Z,29.30
2023-03-10T08:40:15.066Z,29.29
2023-03-10T08:45:22.253Z,29.42
2023-03-10T08:50:29.532Z,30.07
2023-03-10T08:55:36.850Z,30.49
2023-03-10T09:00:44.055Z,30.63
2023-03-10T09:05:51.205Z,30.67
2023-03-10T09:10:58.463Z,31.00
2023-03-10T09:16:05.744Z,30.85
2023-03-10T09:21:12.849Z,30.89
2023-03-10T09:26:20.210Z,31.12
2023-03-10T09:31:27.356Z,29.77
2023-03-10T09:36:34.625Z,30.17
2023-03-10T09:41:41.917Z,31.17
2023-03-10T09:46:49.156Z,29.96
2023-03-10T09:51:56.448Z,30.40
2023-03-10T09:57:03.735Z,30.12
2023-03-10T10:02:10.978Z,30.07
2023-03-10T10:07:18.183Z,29.74
2023-03-10T10:12:25.389Z,30.87
2023-03-10T10:17:35.371Z,30.79
2023-03-10T10:22:39.731Z,29.97
2023-03-10T10:27:47.047Z,29.96
2023-03-10T10:32:54.495Z,31.11
2023-03-10T10:38:01.499Z,30.50
2023-03-10T10:43:08.770Z,30.18
2023-03-10T10:48:16.039Z,29.95
2023-03-10T10:53:23.221Z,29.76
2023-03-10T10:58:30.461Z,29.54
2023-03-10T11:03:37.729Z,29.44
2023-03-10T11:08:44.896Z,29.72
2023-03-10T11:13:52.250Z,29.50
2023-03-10T11:18:59.499Z,29.63
2023-03-10T11:24:06.852Z,29.62
2023-03-10T11:29:14.228Z,29.78
2023-03-10T11:34:21.476Z,29.83
2023-03-10T11:39:28.777Z,29.82
2023-03-10T11:44:36.222Z,30.16
2023-03-10T11:49:43.573Z,30.20
2023-03-10T11:54:50.830Z,30.16
2023-03-10T11:59:58.064Z,30.40
2023-03-10T12:05:05.363Z,29.99
2023-03-10T12:10:12.652Z,29.71
2023-03-10T12:15:20.056Z,29.61
2023-03-10T12:20:27.163Z,29.62
2023-03-10T12:25:34.362Z,29.56
2023-03-10T12:30:41.572Z,29.61
2023-03-10T12:35:48.948Z,29.57
2023-03-10T12:40:56.305Z,29.86
2023-03-10T12:46:03.515Z,29.66
2023-03-10T12:51:10.669Z,29.64
2023-03-10T12:56:17.854Z,29.58
2023-03-10T13:01:25.199Z,29.63
2023-03-10T13:06:32.336Z,29.54
2023-03-10T13:11:39.611Z,29.59
2023-03-10T13:16:46.960Z,29.65
2023-03-10T13:21:54.323Z,29.85
2023-03-10T13:27:01.403Z,29.98
2023-03-10T13:32:08.889Z,29.70
2023-03-10T13:37:16.010Z,29.87
2023-03-10T13:42:28.377Z,29.65
2023-03-10T13:47:30.555Z,29.65
2023-03-10T13:52:37.748Z,29.67
2023-03-10T13:57:45.051Z,29.62
2023-03-10T14:02:52.345Z,29.68
2023-03-10T14:07:59.561Z,29.63
2023-03-10T14:13:06.775Z,29.80
2023-03-10T14:18:14.042Z,29.64
2023-03-10T14:23:21.307Z,29.63
2023-03-10T14:28:28.640Z,29.74
2023-03-10T14:33:35.901Z,29.82
2023-03-10T14:38:43.114Z,29.86
2023-03-10T14:43:50.604Z,29.92
2023-03-10T14:48:57.986Z,30.06
2023-03-10T14:54:05.310Z,30.12
2023-03-10T14:59:12.742Z,30.19
2023-03-10T15:04:20.190Z,30.34
2023-03-10T15:09:27.635Z,30.34
2023-03-10T15:14:35.098Z,30.30
2023-03-10T15:19:42.818Z,30.35
2023-03-10T15:24:50.359Z,30.48
2023-03-10T15:29:57.770Z,30.44
2023-03-10T15:35:05.191Z,30.45
2023-03-10T15:40:12.576Z,30.53
2023-03-10T15:45:19.986Z,31.05
2023-03-10T15:50:30.087Z,30.69
2023-03-10T15:55:37.530Z,30.50
2023-03-10T16:00:53.674Z,30.26
2023-03-10T16:06:01.289Z,30.31
2023-03-10T16:11:08.580Z,30.31
2023-03-10T16:16:16.210Z,30.20
2023-03-10T16:21:23.401Z,30.40
2023-03-10T16:26:30.597Z,31.31
2023-03-10T16:31:38.158Z,31.81
2023-03-10T16:36:45.504Z,31.91
2023-03-10T16:41:52.687Z,31.64
2023-03-10T16:47:00.203Z,31.87
2023-03-10T16:52:07.648Z,31.75
2023-03-10T16:57:14.855Z,31.79
2023-03-10T17:02:22.056Z,31.57
2023-03-10T17:07:29.308Z,31.48
2023-03-10T17:12:36.741Z,31.37
2023-03-10T17:17:43.956Z,30.98
2023-03-10T17:22:51.218Z,31.03
2023-03-10T17:27:58.415Z,30.68
2023-03-10T17:33:05.634Z,30.77
2023-03-10T17:38:13.206Z,30.19
2023-03-10T17:43:33.410Z,30.05
2023-03-10T17:48:28.406Z,29.93
2023-03-10T17:53:35.692Z,29.83
2023-03-10T17:58:42.970Z,29.60
2023-03-10T18:03:50.556Z,29.52
2023-03-10T18:08:57.972Z,29.37
2023-03-10T18:14:05.238Z,29.34
2023-03-10T18:19:12.471Z,29.62
2023-03-10T18:24:19.712Z,29.70
2023-03-10T18:29:27.110Z,30.11
2023-03-10T18:34:34.787Z,30.27
2023-03-10T18:39:42.529Z,30.11
2023-03-10T18:44:50.232Z,29.58
2023-03-10T18:49:57.832Z,29.41
2023-03-10T18:55:05.624Z,29.55
2023-03-10T19:00:13.378Z,29.39
2023-03-10T19:05:20.989Z,29.37
2023-03-10T19:10:28.656Z,29.30
2023-03-10T19:15:36.220Z,29.52
2023-03-10T19:20:44.041Z,29.47
2023-03-10T19:25:51.506Z,29.63
2023-03-10T19:30:59.168Z,29.49
2023-03-10T19:36:06.946Z,29.43
2023-03-10T19:41:14.678Z,29.33
2023-03-10T19:46:22.213Z,29.44
2023-03-10T19:51:29.426Z,29.59
2023-03-10T19:56:37.013Z,29.51
2023-03-10T20:01:44.642Z,33.44
2023-03-10T20:06:52.082Z,29.32
2023-03-10T20:11:59.408Z,29.26
2023-03-10T20:17:06.976Z,29.23
2023-03-10T20:22:14.833Z,29.22
2023-03-10T20:27:22.540Z,29.04
2023-03-10T20:32:29.755Z,28.84
2023-03-10T20:37:37.138Z,28.94
2023-03-10T20:42:44.874Z,28.80
2023-03-10T20:47:52.673Z,28.59
2023-03-10T20:53:00.146Z,28.63
2023-03-10T20:58:07.365Z,28.77
2023-03-10T21:03:14.619Z,28.70
2023-03-10T21:08:22.105Z,28.57
2023-03-10T21:13:30.715Z,28.53
2023-03-10T21:18:38.058Z,28.43
2023-03-10T21:23:45.342Z,28.52
2023-03-10T21:28:52.610Z,28.46
2023-03-10T21:33:59.817Z,28.45
2023-03-10T21:39:07.211Z,28.35
2023-03-10T21:44:14.564Z,28.21
2023-03-10T21:49:21.809Z,28.21
2023-03-10T21:54:29.324Z,28.19
2023-03-10T21:59:36.658Z,28.23
2023-03-10T22:04:43.962Z,28.00
2023-03-10T22:09:51.296Z,28.05
2023-03-10T22:14:58.518Z,28.32
2023-03-10T22:20:05.746Z,28.43
2023-03-10T22:25:13.002Z,28.44
2023-03-10T22:30:20.390Z,28.49
2023-03-10T22:35:27.552Z,28.44
2023-03-10T22:40:34.763Z,28.44
2023-03-10T22:45:42.072Z,28.33
2023-03-10T22:50:49.284Z,28.12
2023-03-10T22:55:56.493Z,28.00
2023-03-10T23:01:04.077Z,27.97
2023-03-10T23:06:11.303Z,27.86
2023-03-10T23:11:18.535Z,27.66
2023-03-10T23:16:25.924Z,27.57
2023-03-10T23:21:33.019Z,27.47
2023-03-10T23:26:40.200Z,27.21
2023-03-10T23:31:47.523Z,27.30
2023-03-10T23:36:54.692Z,27.20
2023-03-10T23:42:02.042Z,27.13
2023-03-10T23:47:09.318Z,27.15
2023-03-10T23:52:16.549Z,27.09
2023-03-10T23:57:23.801Z,26.95
